createdAt,value
2022-08-31T00:00:53.594Z,21.36
2022-08-31T00:01:53.732Z,21.38
2022-08-31T00:02:53.727Z,21.39
2022-08-31T00:03:53.791Z,21.38
2022-08-31T00:04:53.946Z,21.39
2022-08-31T00:05:53.961Z,21.41
2022-08-31T00:06:54.247Z,21.42
2022-08-31T00:07:55.578Z,21.44
2022-08-31T00:08:54.169Z,21.44
2022-08-31T00:09:54.313Z,21.44
2022-08-31T00:10:54.318Z,21.45
2022-08-31T00:11:54.419Z,21.45
2022-08-31T00:12:54.461Z,21.45
2022-08-31T00:13:54.549Z,21.44
2022-08-31T00:14:54.664Z,21.44
2022-08-31T00:15:54.783Z,21.44
2022-08-31T00:16:54.820Z,21.42
2022-08-31T00:17:54.869Z,21.42
2022-08-31T00:18:54.979Z,21.42
2022-08-31T00:19:55.083Z,21.42
2022-08-31T00:20:55.144Z,21.39
2022-08-31T00:21:55.227Z,21.39
2022-08-31T00:22:55.292Z,21.38
2022-08-31T00:23:55.432Z,21.38
2022-08-31T00:24:55.498Z,21.36
2022-08-31T00:25:55.590Z,21.35
2022-08-31T00:26:55.668Z,21.35
2022-08-31T00:27:55.752Z,21.35
2022-08-31T00:28:55.841Z,21.35
2022-08-31T00:29:55.941Z,21.35
2022-08-31T00:30:55.979Z,21.34
2022-08-31T00:31:56.089Z,21.35
2022-08-31T00:32:58.346Z,21.34
2022-08-31T00:33:56.203Z,21.34
2022-08-31T00:34:56.297Z,21.32
2022-08-31T00:35:56.377Z,21.32
2022-08-31T00:36:56.446Z,21.32
2022-08-31T00:37:56.517Z,21.32
2022-08-31T00:38:56.589Z,21.30
2022-08-31T00:39:56.698Z,21.30
2022-08-31T00:40:56.809Z,21.30
2022-08-31T00:41:56.804Z,21.30
2022-08-31T00:42:56.877Z,21.32
2022-08-31T00:43:56.958Z,21.29
2022-08-31T00:44:57.106Z,21.30
2022-08-31T00:45:57.206Z,21.30
2022-08-31T00:46:57.237Z,21.32
2022-08-31T00:47:57.330Z,21.30
2022-08-31T00:48:57.432Z,21.29
2022-08-31T00:49:57.539Z,21.30
2022-08-31T00:50:57.587Z,21.30
2022-08-31T00:51:57.708Z,21.29
2022-08-31T00:52:57.742Z,21.29
2022-08-31T00:53:57.839Z,21.30
2022-08-31T00:54:57.962Z,21.30
2022-08-31T00:55:58.004Z,21.30
2022-08-31T00:56:58.096Z,21.32
2022-08-31T00:57:58.172Z,21.32
2022-08-31T00:58:58.278Z,21.34
2022-08-31T00:59:58.350Z,21.32
2022-08-31T01:00:58.459Z,21.34
2022-08-31T01:01:58.531Z,21.34
2022-08-31T01:02:58.523Z,21.35
2022-08-31T01:03:58.586Z,21.32
2022-08-31T01:04:58.682Z,21.34
2022-08-31T01:05:58.772Z,21.34
2022-08-31T01:06:58.856Z,21.34
2022-08-31T01:07:58.933Z,21.36
2022-08-31T01:08:59.012Z,21.36
2022-08-31T01:09:59.150Z,21.35
2022-08-31T01:10:59.159Z,21.35
2022-08-31T01:11:59.268Z,21.36
2022-08-31T01:12:59.298Z,21.36
2022-08-31T01:13:59.377Z,21.36
2022-08-31T01:14:59.479Z,21.35
2022-08-31T01:15:59.620Z,21.36
2022-08-31T01:16:59.648Z,21.36
2022-08-31T01:17:59.690Z,21.35
2022-08-31T01:18:59.760Z,21.35
2022-08-31T01:19:59.870Z,21.35
2022-08-31T01:20:59.900Z,21.32
2022-08-31T01:21:59.978Z,21.30
2022-08-31T01:23:00.056Z,21.29
2022-08-31T01:24:00.142Z,21.26
2022-08-31T01:25:00.230Z,21.24
2022-08-31T01:26:00.324Z,21.23
2022-08-31T01:27:00.433Z,21.20
2022-08-31T01:28:00.466Z,21.20
2022-08-31T01:29:00.542Z,21.19
2022-08-31T01:30:00.644Z,21.17
2022-08-31T01:31:00.714Z,21.16
2022-08-31T01:32:00.936Z,21.16
2022-08-31T01:33:00.857Z,21.16
2022-08-31T01:34:01.042Z,21.14
2022-08-31T01:35:01.023Z,21.16
2022-08-31T01:36:01.154Z,21.16
2022-08-31T01:37:01.235Z,21.16
2022-08-31T01:38:01.273Z,21.16
2022-08-31T01:39:01.353Z,21.17
2022-08-31T01:40:01.496Z,21.16
2022-08-31T01:41:01.540Z,21.14
2022-08-31T01:42:01.580Z,21.14
2022-08-31T01:43:01.636Z,21.14
2022-08-31T01:44:01.774Z,21.13
2022-08-31T01:45:01.910Z,21.14
2022-08-31T01:46:02.561Z,21.11
2022-08-31T01:47:02.036Z,21.13
2022-08-31T01:48:02.081Z,21.11
2022-08-31T01:49:02.163Z,21.11
2022-08-31T01:50:02.228Z,21.11
2022-08-31T01:51:02.259Z,21.11
2022-08-31T01:52:02.357Z,21.11
2022-08-31T01:53:02.496Z,21.11
2022-08-31T01:54:02.532Z,21.11
2022-08-31T01:55:02.614Z,21.09
2022-08-31T01:56:02.694Z,21.13
2022-08-31T01:57:02.789Z,21.09
2022-08-31T01:58:02.857Z,21.11
2022-08-31T01:59:08.093Z,21.08
2022-08-31T02:00:03.022Z,21.06
2022-08-31T02:01:03.152Z,21.06
2022-08-31T02:02:03.285Z,21.05
2022-08-31T02:03:03.294Z,21.04
2022-08-31T02:04:03.355Z,21.04
2022-08-31T02:05:03.416Z,21.02
2022-08-31T02:06:38.713Z,21.01
2022-08-31T02:07:39.751Z,20.99
2022-08-31T02:08:39.783Z,20.96
2022-08-31T02:09:39.930Z,20.95
2022-08-31T02:10:39.956Z,20.93
2022-08-31T02:11:39.991Z,20.90
2022-08-31T02:12:40.073Z,20.89
2022-08-31T02:13:40.192Z,20.90
2022-08-31T02:14:40.233Z,20.90
2022-08-31T02:15:40.370Z,20.90
2022-08-31T02:16:40.450Z,20.89
2022-08-31T02:17:40.481Z,20.90
2022-08-31T02:18:40.569Z,20.90
2022-08-31T02:22:55.252Z,20.71
2022-08-31T02:23:56.380Z,20.68
2022-08-31T02:24:56.269Z,20.66
2022-08-31T02:25:56.388Z,20.68
2022-08-31T02:26:56.426Z,20.68
2022-08-31T02:27:56.504Z,20.69
2022-08-31T02:28:56.583Z,20.71
2022-08-31T02:29:56.665Z,20.72
2022-08-31T02:30:56.824Z,20.76
2022-08-31T02:31:56.829Z,20.76
2022-08-31T02:32:56.915Z,20.74
2022-08-31T02:33:56.989Z,20.77
2022-08-31T02:34:57.060Z,20.77
2022-08-31T02:35:57.160Z,20.77
2022-08-31T02:36:57.254Z,20.76
2022-08-31T02:37:57.313Z,20.74
2022-08-31T02:38:57.377Z,20.71
2022-08-31T02:39:57.477Z,20.71
2022-08-31T02:40:57.774Z,20.68
2022-08-31T02:41:57.652Z,20.66
2022-08-31T02:42:57.703Z,20.65
2022-08-31T02:43:57.797Z,20.64
2022-08-31T02:44:57.879Z,20.65
2022-08-31T02:45:58.034Z,20.65
2022-08-31T02:46:58.049Z,20.65
2022-08-31T02:47:58.121Z,20.65
2022-08-31T02:48:58.203Z,20.66
2022-08-31T02:49:58.283Z,20.66
2022-08-31T02:50:58.377Z,20.66
2022-08-31T02:51:58.461Z,20.68
2022-08-31T02:52:58.535Z,20.66
2022-08-31T02:53:58.625Z,20.69
2022-08-31T02:54:58.705Z,20.68
2022-08-31T02:55:58.835Z,20.68
2022-08-31T02:56:58.874Z,20.66
2022-08-31T02:57:58.985Z,20.66
2022-08-31T02:58:59.029Z,20.65
2022-08-31T02:59:59.142Z,20.62
2022-08-31T03:00:59.224Z,20.61
2022-08-31T03:01:59.361Z,20.59
2022-08-31T03:02:59.405Z,20.58
2022-08-31T03:03:59.428Z,20.53
2022-08-31T03:04:59.509Z,20.50
2022-08-31T03:05:59.653Z,20.46
2022-08-31T03:06:59.702Z,20.42
2022-08-31T03:07:59.782Z,20.35
2022-08-31T03:08:59.862Z,20.34
2022-08-31T03:09:59.941Z,20.31
2022-08-31T03:11:00.037Z,20.31
2022-08-31T03:12:00.184Z,20.28
2022-08-31T03:13:00.224Z,20.28
2022-08-31T03:14:00.294Z,20.30
2022-08-31T03:15:00.388Z,20.30
2022-08-31T03:16:00.599Z,20.30
2022-08-31T03:17:00.569Z,20.33
2022-08-31T03:18:00.668Z,20.33
2022-08-31T03:19:00.721Z,20.34
2022-08-31T03:20:00.803Z,20.34
2022-08-31T03:21:00.904Z,20.35
2022-08-31T03:22:00.985Z,20.35
2022-08-31T03:23:01.065Z,20.38
2022-08-31T03:24:01.197Z,20.38
2022-08-31T03:25:01.265Z,20.39
2022-08-31T03:26:01.320Z,20.39
2022-08-31T03:27:01.367Z,20.41
2022-08-31T03:28:01.433Z,20.39
2022-08-31T03:29:01.512Z,20.39
2022-08-31T03:30:01.582Z,20.38
2022-08-31T03:31:01.739Z,20.39
2022-08-31T03:32:01.747Z,20.38
2022-08-31T03:33:02.927Z,20.41
2022-08-31T03:34:01.902Z,20.39
2022-08-31T03:35:01.988Z,20.41
2022-08-31T03:36:02.096Z,20.41
2022-08-31T03:37:02.186Z,20.41
2022-08-31T03:38:02.258Z,20.41
2022-08-31T03:39:02.350Z,20.41
2022-08-31T03:40:02.494Z,20.38
2022-08-31T03:41:02.518Z,20.38
2022-08-31T03:42:02.586Z,20.34
2022-08-31T03:43:02.668Z,20.33
2022-08-31T03:44:02.738Z,20.33
2022-08-31T03:45:02.834Z,20.33
2022-08-31T03:46:02.984Z,20.31
2022-08-31T03:47:03.017Z,20.31
2022-08-31T03:48:03.043Z,20.30
2022-08-31T03:49:03.119Z,20.28
2022-08-31T03:50:03.195Z,20.27
2022-08-31T03:51:03.279Z,20.28
2022-08-31T03:52:03.361Z,20.25
2022-08-31T03:53:03.455Z,20.25
2022-08-31T03:54:03.545Z,20.24
2022-08-31T03:55:03.643Z,20.24
2022-08-31T03:56:03.710Z,20.23
2022-08-31T03:57:03.755Z,20.23
2022-08-31T03:58:03.839Z,20.21
2022-08-31T03:59:03.966Z,20.21
2022-08-31T04:00:04.007Z,20.21
2022-08-31T04:01:04.177Z,20.20
2022-08-31T04:02:04.181Z,20.20
2022-08-31T04:03:04.321Z,20.21
2022-08-31T04:04:04.352Z,20.21
2022-08-31T04:05:04.427Z,20.21
2022-08-31T04:06:04.530Z,20.23
2022-08-31T04:07:04.609Z,20.25
2022-08-31T04:08:04.712Z,20.27
2022-08-31T04:09:04.787Z,20.28
2022-08-31T04:10:04.867Z,20.30
2022-08-31T04:11:04.986Z,20.31
2022-08-31T04:12:05.021Z,20.31
2022-08-31T04:13:05.109Z,20.34
2022-08-31T04:14:05.231Z,20.33
2022-08-31T04:15:05.291Z,20.33
2022-08-31T04:16:05.481Z,20.33
2022-08-31T04:17:05.454Z,20.33
2022-08-31T04:18:05.555Z,20.33
2022-08-31T04:19:07.843Z,20.33
2022-08-31T04:20:05.729Z,20.33
2022-08-31T04:21:05.848Z,20.31
2022-08-31T04:22:05.884Z,20.31
2022-08-31T04:23:05.971Z,20.31
2022-08-31T04:24:06.055Z,20.31
2022-08-31T04:25:06.134Z,20.28
2022-08-31T04:26:06.226Z,20.28
2022-08-31T04:27:06.315Z,20.27
2022-08-31T04:28:06.397Z,20.24
2022-08-31T04:29:10.827Z,20.21
2022-08-31T04:30:06.544Z,20.21
2022-08-31T04:31:06.697Z,20.18
2022-08-31T04:32:06.730Z,20.18
2022-08-31T04:33:06.805Z,20.16
2022-08-31T04:34:06.881Z,20.16
2022-08-31T04:35:06.966Z,20.15
2022-08-31T04:36:07.059Z,20.12
2022-08-31T04:37:07.147Z,20.12
2022-08-31T04:38:07.215Z,20.12
2022-08-31T04:39:07.306Z,20.10
2022-08-31T04:40:07.425Z,20.10
2022-08-31T04:41:07.510Z,20.12
2022-08-31T04:42:07.567Z,20.12
2022-08-31T04:43:07.663Z,20.12
2022-08-31T04:44:07.740Z,20.12
2022-08-31T04:45:07.825Z,20.12
2022-08-31T05:04:05.061Z,19.40
2022-08-31T05:05:06.162Z,19.42
2022-08-31T05:06:06.205Z,19.46
2022-08-31T05:07:06.315Z,19.50
2022-08-31T05:08:06.310Z,19.54
2022-08-31T05:09:06.392Z,19.54
2022-08-31T05:10:06.486Z,19.57
2022-08-31T05:11:06.601Z,19.60
2022-08-31T05:12:06.679Z,19.60
2022-08-31T05:13:06.725Z,19.60
2022-08-31T05:14:06.803Z,19.58
2022-08-31T05:15:06.882Z,19.58
2022-08-31T05:16:13.529Z,19.57
2022-08-31T05:17:11.547Z,19.55
2022-08-31T05:18:07.233Z,19.54
2022-08-31T05:19:07.199Z,19.51
2022-08-31T05:20:07.307Z,19.51
2022-08-31T05:21:07.362Z,19.48
2022-08-31T05:22:07.443Z,19.48
2022-08-31T05:23:07.549Z,19.48
2022-08-31T05:24:07.625Z,19.48
2022-08-31T05:25:07.690Z,19.48
2022-08-31T05:26:07.773Z,19.50
2022-08-31T05:27:07.855Z,19.51
2022-08-31T05:28:07.957Z,19.51
2022-08-31T05:29:08.017Z,19.51
2022-08-31T05:30:08.106Z,19.54
2022-08-31T05:31:08.318Z,19.54
2022-08-31T05:32:08.345Z,19.54
2022-08-31T05:33:08.418Z,19.57
2022-08-31T05:34:08.473Z,19.55
2022-08-31T05:35:08.541Z,19.58
2022-08-31T05:36:08.627Z,19.58
2022-08-31T05:37:08.724Z,19.60
2022-08-31T05:38:08.825Z,19.60
2022-08-31T05:39:08.897Z,19.61
2022-08-31T05:40:09.055Z,19.61
2022-08-31T05:41:09.037Z,19.61
2022-08-31T05:42:09.131Z,19.63
2022-08-31T05:43:09.222Z,19.65
2022-08-31T05:44:09.287Z,19.66
2022-08-31T05:45:09.348Z,19.68
2022-08-31T05:46:10.479Z,19.68
2022-08-31T05:47:09.602Z,19.69
2022-08-31T05:48:09.611Z,19.70
2022-08-31T05:49:11.006Z,19.72
2022-08-31T05:50:09.771Z,19.75
2022-08-31T05:51:11.444Z,19.76
2022-08-31T05:52:09.951Z,19.76
2022-08-31T05:53:10.018Z,19.80
2022-08-31T05:54:10.081Z,19.80
2022-08-31T05:55:10.169Z,19.83
2022-08-31T05:56:10.262Z,19.84
2022-08-31T05:57:10.342Z,19.87
2022-08-31T05:58:10.423Z,19.90
2022-08-31T05:59:10.493Z,19.91
2022-08-31T06:00:10.571Z,19.91
2022-08-31T06:01:10.654Z,19.94
2022-08-31T06:02:10.901Z,19.95
2022-08-31T06:03:10.839Z,19.95
2022-08-31T06:04:10.881Z,19.97
2022-08-31T06:05:11.080Z,19.97
2022-08-31T06:06:11.051Z,19.98
2022-08-31T06:07:11.148Z,19.98
2022-08-31T06:08:15.271Z,20.02
2022-08-31T06:09:11.269Z,20.03
2022-08-31T06:10:11.366Z,20.03
2022-08-31T06:11:11.456Z,20.02
2022-08-31T06:12:11.620Z,20.03
2022-08-31T06:13:11.652Z,20.03
2022-08-31T06:14:11.702Z,20.03
2022-08-31T06:15:11.780Z,20.03
2022-08-31T06:16:11.950Z,20.03
2022-08-31T06:17:11.993Z,20.05
2022-08-31T06:18:12.016Z,20.06
2022-08-31T06:19:12.091Z,20.05
2022-08-31T06:20:17.451Z,20.05
2022-08-31T06:21:12.277Z,20.03
2022-08-31T06:22:12.341Z,20.03
2022-08-31T06:23:12.411Z,20.03
2022-08-31T06:24:12.536Z,20.03
2022-08-31T06:25:12.541Z,20.05
2022-08-31T06:26:12.655Z,20.05
2022-08-31T06:27:12.744Z,20.06
2022-08-31T06:28:12.830Z,20.06
2022-08-31T06:29:12.906Z,20.06
2022-08-31T06:30:12.971Z,20.06
2022-08-31T06:31:13.138Z,20.05
2022-08-31T06:32:13.162Z,20.05
2022-08-31T06:33:13.225Z,20.03
2022-08-31T06:34:13.301Z,20.02
2022-08-31T06:35:13.427Z,19.98
2022-08-31T06:36:13.479Z,19.98
2022-08-31T06:37:19.067Z,19.95
2022-08-31T06:38:13.652Z,19.94
2022-08-31T06:39:13.740Z,19.93
2022-08-31T06:40:13.891Z,19.91
2022-08-31T06:41:13.888Z,19.91
2022-08-31T06:42:14.048Z,19.91
2022-08-31T06:43:14.098Z,19.90
2022-08-31T06:44:14.198Z,19.91
2022-08-31T06:45:14.207Z,19.91
2022-08-31T06:46:14.326Z,19.90
2022-08-31T06:47:14.408Z,19.90
2022-08-31T06:48:14.522Z,19.88
2022-08-31T06:49:14.559Z,19.90
2022-08-31T06:50:14.625Z,19.90
2022-08-31T06:51:14.693Z,19.91
2022-08-31T06:52:14.835Z,19.93
2022-08-31T06:53:14.870Z,19.91
2022-08-31T06:54:29.562Z,19.91
2022-08-31T06:55:15.051Z,19.91
2022-08-31T06:56:20.920Z,19.91
2022-08-31T06:57:15.225Z,19.88
2022-08-31T06:58:15.264Z,19.90
2022-08-31T06:59:15.337Z,19.88
2022-08-31T07:00:15.414Z,19.90
2022-08-31T07:01:15.862Z,19.88
2022-08-31T07:02:15.801Z,19.90
2022-08-31T07:03:15.711Z,19.90
2022-08-31T07:04:15.699Z,19.91
2022-08-31T07:05:24.327Z,19.90
2022-08-31T07:06:15.856Z,19.90
2022-08-31T07:07:15.976Z,19.90
2022-08-31T07:08:16.025Z,19.90
2022-08-31T07:09:16.094Z,19.91
2022-08-31T07:10:16.183Z,19.91
2022-08-31T07:11:16.256Z,19.91
2022-08-31T07:12:16.379Z,19.91
2022-08-31T07:13:16.422Z,19.93
2022-08-31T07:14:16.542Z,19.90
2022-08-31T07:15:16.567Z,19.91
2022-08-31T07:16:16.681Z,19.90
2022-08-31T07:17:16.720Z,19.90
2022-08-31T07:18:16.800Z,19.90
2022-08-31T07:19:16.869Z,19.88
2022-08-31T07:20:17.011Z,19.88
2022-08-31T07:21:17.043Z,19.88
2022-08-31T07:22:17.171Z,19.87
2022-08-31T07:23:17.271Z,19.86
2022-08-31T07:24:17.279Z,19.86
2022-08-31T07:25:17.404Z,19.86
2022-08-31T07:26:17.480Z,19.86
2022-08-31T07:27:17.580Z,19.84
2022-08-31T07:28:17.708Z,19.84
2022-08-31T07:29:17.756Z,19.86
2022-08-31T07:30:17.859Z,19.87
2022-08-31T07:31:18.016Z,19.87
2022-08-31T07:32:18.017Z,19.88
2022-08-31T07:33:18.213Z,19.88
2022-08-31T07:34:18.217Z,19.91
2022-08-31T07:35:18.254Z,19.91
2022-08-31T07:36:18.334Z,19.91
2022-08-31T07:37:18.420Z,19.93
2022-08-31T07:38:18.499Z,19.94
2022-08-31T07:39:18.568Z,19.94
2022-08-31T07:40:18.728Z,19.95
2022-08-31T07:41:18.753Z,19.95
2022-08-31T07:42:18.874Z,19.97
2022-08-31T07:43:19.104Z,19.97
2022-08-31T07:44:19.036Z,19.98
2022-08-31T07:45:19.096Z,19.98
2022-08-31T07:46:19.228Z,19.98
2022-08-31T07:47:19.260Z,20.00
2022-08-31T07:48:19.357Z,19.98
2022-08-31T07:49:19.376Z,19.98
2022-08-31T07:50:19.504Z,20.00
2022-08-31T07:51:19.540Z,20.02
2022-08-31T07:52:19.675Z,20.02
2022-08-31T07:53:19.841Z,20.00
2022-08-31T07:54:19.784Z,20.03
2022-08-31T07:55:19.873Z,20.02
2022-08-31T07:56:19.965Z,20.02
2022-08-31T07:57:20.096Z,20.00
2022-08-31T07:58:20.127Z,20.00
2022-08-31T07:59:20.205Z,20.02
2022-08-31T08:00:20.842Z,20.02
2022-08-31T08:01:20.458Z,20.02
2022-08-31T08:02:20.544Z,20.03
2022-08-31T08:03:20.771Z,20.03
2022-08-31T08:04:20.683Z,20.03
2022-08-31T08:05:20.676Z,20.05
2022-08-31T08:06:20.760Z,20.05
2022-08-31T08:07:21.530Z,20.05
2022-08-31T08:08:20.904Z,20.06
2022-08-31T08:09:24.415Z,20.08
2022-08-31T08:10:21.102Z,20.09
2022-08-31T08:11:21.147Z,20.06
2022-08-31T08:12:22.597Z,20.09
2022-08-31T08:13:21.606Z,20.09
2022-08-31T08:14:21.400Z,20.09
2022-08-31T08:15:21.515Z,20.09
2022-08-31T08:16:21.656Z,20.10
2022-08-31T08:17:21.641Z,20.09
2022-08-31T08:18:21.733Z,20.08
2022-08-31T08:19:21.782Z,20.08
2022-08-31T08:20:37.235Z,20.09
2022-08-31T08:21:21.947Z,20.06
2022-08-31T08:22:41.650Z,20.05
2022-08-31T08:23:26.726Z,20.05
2022-08-31T08:24:22.193Z,20.05
2022-08-31T08:25:26.022Z,20.03
2022-08-31T08:26:22.442Z,20.03
2022-08-31T08:27:22.448Z,20.02
2022-08-31T08:28:38.832Z,19.98
2022-08-31T08:29:22.588Z,20.00
2022-08-31T08:30:22.637Z,19.98
2022-08-31T08:31:22.769Z,19.98
2022-08-31T08:32:22.807Z,19.97
2022-08-31T08:33:22.891Z,19.95
2022-08-31T08:34:32.157Z,19.97
2022-08-31T08:35:23.080Z,19.97
2022-08-31T08:36:23.130Z,19.95
2022-08-31T08:37:41.014Z,19.94
2022-08-31T08:38:23.335Z,19.94
2022-08-31T08:39:23.429Z,19.93
2022-08-31T08:40:23.494Z,19.91
2022-08-31T08:41:23.553Z,19.91
2022-08-31T08:42:23.701Z,19.88
2022-08-31T08:43:26.577Z,19.88
2022-08-31T08:44:23.808Z,19.88
2022-08-31T08:45:23.893Z,19.86
2022-08-31T08:47:35.195Z,19.87
2022-08-31T08:47:42.833Z,19.86
2022-08-31T08:48:24.127Z,19.86
2022-08-31T08:49:24.759Z,19.86
2022-08-31T08:50:24.297Z,19.84
2022-08-31T08:51:24.378Z,19.86
2022-08-31T08:52:24.515Z,19.86
2022-08-31T08:53:24.545Z,19.84
2022-08-31T08:54:24.673Z,19.83
2022-08-31T08:55:24.714Z,19.83
2022-08-31T08:56:33.449Z,19.80
2022-08-31T08:57:24.899Z,19.83
2022-08-31T08:58:24.944Z,19.80
2022-08-31T08:59:25.020Z,19.80
2022-08-31T09:00:25.107Z,19.80
2022-08-31T09:01:25.231Z,19.80
2022-08-31T09:02:25.310Z,19.83
2022-08-31T09:03:25.363Z,19.83
2022-08-31T09:04:25.424Z,19.83
2022-08-31T09:05:25.519Z,19.80
2022-08-31T09:06:25.613Z,19.80
2022-08-31T09:07:25.696Z,19.79
2022-08-31T09:08:25.824Z,19.79
2022-08-31T09:09:25.870Z,19.78
2022-08-31T09:10:25.946Z,19.78
2022-08-31T09:11:26.027Z,19.78
2022-08-31T09:12:26.121Z,19.78
2022-08-31T09:13:26.278Z,19.76
2022-08-31T09:14:26.297Z,19.76
2022-08-31T09:15:26.384Z,19.75
2022-08-31T09:16:26.518Z,19.72
2022-08-31T09:17:26.571Z,19.73
2022-08-31T09:18:26.664Z,19.72
2022-08-31T09:19:26.766Z,19.70
2022-08-31T09:20:26.833Z,19.69
2022-08-31T09:21:26.907Z,19.68
2022-08-31T09:22:27.019Z,19.68
2022-08-31T09:23:27.106Z,19.69
2022-08-31T09:24:27.140Z,19.69
2022-08-31T09:25:27.246Z,19.66
2022-08-31T09:26:27.287Z,19.66
2022-08-31T09:27:27.361Z,19.66
2022-08-31T09:28:27.453Z,19.65
2022-08-31T09:29:27.529Z,19.63
2022-08-31T09:30:27.628Z,19.63
2022-08-31T09:31:27.778Z,19.60
2022-08-31T09:32:27.747Z,19.58
2022-08-31T09:33:27.844Z,19.58
2022-08-31T09:34:27.927Z,19.58
2022-08-31T09:35:28.013Z,19.55
2022-08-31T09:36:28.092Z,19.54
2022-08-31T09:37:28.177Z,19.53
2022-08-31T09:38:28.269Z,19.53
2022-08-31T09:39:28.348Z,19.51
2022-08-31T09:40:28.491Z,19.53
2022-08-31T09:41:28.533Z,19.51
2022-08-31T09:42:28.631Z,19.53
2022-08-31T09:43:28.727Z,19.54
2022-08-31T09:44:28.774Z,19.54
2022-08-31T09:45:28.895Z,19.57
2022-08-31T09:46:28.949Z,19.55
2022-08-31T09:47:29.036Z,19.55
2022-08-31T09:48:29.090Z,19.55
2022-08-31T09:49:29.187Z,19.57
2022-08-31T09:50:29.267Z,19.55
2022-08-31T09:51:29.343Z,19.57
2022-08-31T09:52:29.413Z,19.57
2022-08-31T09:53:29.541Z,19.58
2022-08-31T09:54:29.571Z,19.58
2022-08-31T09:55:29.653Z,19.58
2022-08-31T09:56:29.770Z,19.60
2022-08-31T09:57:29.778Z,19.58
2022-08-31T09:58:29.923Z,19.61
2022-08-31T09:59:29.920Z,19.60
2022-08-31T10:00:29.986Z,19.60
2022-08-31T10:01:30.207Z,19.60
2022-08-31T10:02:30.166Z,19.60
2022-08-31T10:03:30.270Z,19.61
2022-08-31T10:04:30.301Z,19.63
2022-08-31T10:05:30.430Z,19.65
2022-08-31T10:06:30.449Z,19.65
2022-08-31T10:07:30.527Z,19.65
2022-08-31T10:08:30.636Z,19.66
2022-08-31T10:09:30.742Z,19.66
2022-08-31T10:10:31.747Z,19.66
2022-08-31T10:11:30.876Z,19.68
2022-08-31T10:12:30.962Z,19.68
2022-08-31T10:13:31.056Z,19.68
2022-08-31T10:14:31.130Z,19.69
2022-08-31T10:15:31.281Z,19.69
2022-08-31T10:16:31.455Z,19.69
2022-08-31T10:17:32.181Z,19.70
2022-08-31T10:18:31.447Z,19.70
2022-08-31T10:19:31.533Z,19.69
2022-08-31T10:20:31.596Z,19.69
2022-08-31T10:21:31.656Z,19.68
2022-08-31T10:22:31.740Z,19.69
2022-08-31T10:23:31.835Z,19.68
2022-08-31T10:24:31.896Z,19.68
2022-08-31T10:25:31.977Z,19.69
2022-08-31T10:26:32.036Z,19.69
2022-08-31T10:27:32.111Z,19.69
2022-08-31T10:28:32.240Z,19.70
2022-08-31T10:29:32.307Z,19.70
2022-08-31T10:30:32.354Z,19.72
2022-08-31T10:31:32.508Z,19.72
2022-08-31T10:32:32.502Z,19.69
2022-08-31T10:33:32.607Z,19.72
2022-08-31T10:34:32.643Z,19.72
2022-08-31T10:35:32.734Z,19.75
2022-08-31T10:36:32.872Z,19.75
2022-08-31T10:37:32.880Z,19.75
2022-08-31T10:38:32.973Z,19.73
2022-08-31T10:39:33.050Z,19.76
2022-08-31T10:40:33.164Z,19.75
2022-08-31T10:41:33.209Z,19.73
2022-08-31T10:42:33.309Z,19.73
2022-08-31T10:43:33.469Z,19.73
2022-08-31T10:44:33.461Z,19.72
2022-08-31T10:45:33.542Z,19.72
2022-08-31T10:46:33.683Z,19.72
2022-08-31T10:47:34.391Z,19.70
2022-08-31T10:48:33.783Z,19.70
2022-08-31T10:49:33.828Z,19.69
2022-08-31T10:50:33.901Z,19.70
2022-08-31T10:51:33.987Z,19.69
2022-08-31T10:52:34.079Z,19.69
2022-08-31T10:53:35.932Z,19.68
2022-08-31T10:54:34.226Z,19.66
2022-08-31T10:55:34.306Z,19.66
2022-08-31T10:56:34.396Z,19.63
2022-08-31T10:57:34.480Z,19.61
2022-08-31T10:58:34.579Z,19.60
2022-08-31T10:59:34.641Z,19.58
2022-08-31T11:00:34.709Z,19.58
2022-08-31T11:01:34.863Z,19.58
2022-08-31T11:02:34.882Z,19.57
2022-08-31T11:03:35.061Z,19.60
2022-08-31T11:04:35.087Z,19.61
2022-08-31T11:05:35.110Z,19.61
2022-08-31T11:06:35.198Z,19.63
2022-08-31T11:07:35.275Z,19.66
2022-08-31T11:08:35.381Z,19.66
2022-08-31T11:09:35.419Z,19.69
2022-08-31T11:10:35.492Z,19.68
2022-08-31T11:11:35.584Z,19.68
2022-08-31T11:12:35.719Z,19.69
2022-08-31T11:13:35.764Z,19.70
2022-08-31T11:14:35.854Z,19.70
2022-08-31T11:15:35.971Z,19.72
2022-08-31T12:01:59.929Z,18.99
2022-08-31T12:03:01.015Z,19.02
2022-08-31T12:04:01.010Z,19.05
2022-08-31T12:05:01.163Z,19.11
2022-08-31T12:06:01.169Z,19.17
2022-08-31T12:07:01.255Z,19.23
2022-08-31T12:08:01.356Z,19.29
2022-08-31T12:09:01.401Z,19.35
2022-08-31T12:10:01.506Z,19.39
2022-08-31T12:11:01.542Z,19.43
2022-08-31T12:12:01.631Z,19.48
2022-08-31T12:13:01.710Z,19.51
2022-08-31T12:14:01.783Z,19.54
2022-08-31T12:15:01.874Z,19.58
2022-08-31T12:16:02.044Z,19.60
2022-08-31T12:17:08.610Z,19.63
2022-08-31T12:18:02.105Z,19.63
2022-08-31T12:19:02.316Z,19.63
2022-08-31T12:20:02.750Z,19.65
2022-08-31T12:21:02.341Z,19.68
2022-08-31T12:22:02.430Z,19.69
2022-08-31T12:23:02.514Z,19.73
2022-08-31T12:24:02.590Z,19.73
2022-08-31T12:25:02.679Z,19.75
2022-08-31T12:26:02.773Z,19.76
2022-08-31T12:27:02.864Z,19.78
2022-08-31T12:28:02.948Z,19.79
2022-08-31T12:29:03.035Z,19.80
2022-08-31T12:30:03.200Z,19.83
2022-08-31T12:31:03.282Z,19.84
2022-08-31T12:32:05.482Z,19.86
2022-08-31T12:37:39.498Z,19.68
2022-08-31T12:40:00.858Z,19.57
2022-08-31T12:47:46.719Z,19.35
2022-08-31T13:06:22.472Z,19.02
2022-08-31T13:07:23.495Z,19.06
2022-08-31T13:13:08.894Z,19.08
2022-08-31T13:14:10.002Z,19.10
2022-08-31T13:15:09.918Z,19.11
2022-08-31T13:16:10.017Z,19.15
2022-08-31T13:17:10.112Z,19.21
2022-08-31T13:18:10.123Z,19.29
2022-08-31T13:19:10.192Z,19.35
2022-08-31T13:20:10.253Z,19.38
2022-08-31T13:21:10.340Z,19.43
2022-08-31T13:22:10.424Z,19.48
2022-08-31T13:23:10.513Z,19.53
2022-08-31T13:24:10.567Z,19.57
2022-08-31T13:25:10.712Z,19.60
2022-08-31T13:26:10.742Z,19.65
2022-08-31T13:27:10.824Z,19.68
2022-08-31T13:28:10.885Z,19.70
2022-08-31T13:29:11.045Z,19.73
2022-08-31T13:30:11.086Z,19.75
2022-08-31T13:31:11.286Z,19.78
2022-08-31T13:32:11.242Z,19.79
2022-08-31T13:33:15.694Z,19.83
2022-08-31T13:34:11.391Z,19.84
2022-08-31T13:35:11.484Z,19.86
2022-08-31T13:36:11.564Z,19.87
2022-08-31T13:37:11.773Z,19.88
2022-08-31T13:38:11.770Z,19.90
2022-08-31T13:39:11.877Z,19.90
2022-08-31T13:40:11.991Z,19.91
2022-08-31T13:41:12.032Z,19.94
2022-08-31T13:42:12.212Z,19.94
2022-08-31T13:43:12.236Z,19.94
2022-08-31T13:44:12.272Z,19.97
2022-08-31T13:45:12.363Z,19.95
2022-08-31T13:46:12.464Z,19.95
2022-08-31T13:47:12.555Z,19.97
2022-08-31T13:48:12.645Z,19.98
2022-08-31T13:49:12.686Z,19.97
2022-08-31T13:50:12.804Z,19.98
2022-08-31T13:51:12.820Z,20.00
2022-08-31T13:52:12.985Z,20.00
2022-08-31T13:53:28.271Z,19.98
2022-08-31T13:54:13.132Z,19.98
2022-08-31T13:55:13.178Z,19.98
2022-08-31T13:56:13.280Z,19.98
2022-08-31T13:57:13.459Z,19.98
2022-08-31T13:58:13.562Z,19.98
2022-08-31T13:59:13.532Z,19.97
2022-08-31T14:00:13.582Z,19.98
2022-08-31T14:01:13.723Z,19.97
2022-08-31T14:02:13.848Z,19.95
2022-08-31T14:03:17.870Z,19.95
2022-08-31T14:04:13.908Z,19.95
2022-08-31T14:05:13.957Z,19.95
2022-08-31T14:06:14.069Z,19.94
2022-08-31T14:07:14.175Z,19.93
2022-08-31T14:08:14.230Z,19.93
2022-08-31T14:09:16.810Z,19.91
2022-08-31T14:10:14.383Z,19.90
2022-08-31T14:11:14.466Z,19.90
2022-08-31T14:12:14.571Z,19.88
2022-08-31T14:13:14.747Z,19.88
2022-08-31T14:14:14.772Z,19.88
2022-08-31T14:15:14.845Z,19.88
2022-08-31T14:16:15.055Z,19.87
2022-08-31T14:17:15.053Z,19.87
2022-08-31T14:18:53.218Z,19.87
2022-08-31T14:19:28.402Z,19.84
2022-08-31T14:20:17.458Z,19.84
2022-08-31T14:21:23.652Z,19.84
2022-08-31T14:22:15.621Z,19.84
2022-08-31T14:23:15.528Z,19.84
2022-08-31T14:24:15.612Z,19.84
2022-08-31T14:25:15.692Z,19.84
2022-08-31T14:26:15.760Z,19.84
2022-08-31T14:27:15.936Z,19.84
2022-08-31T14:28:15.917Z,19.83
2022-08-31T14:29:16.034Z,19.84
2022-08-31T14:30:16.057Z,19.83
2022-08-31T14:31:16.372Z,19.83
2022-08-31T14:32:16.292Z,19.83
2022-08-31T14:33:16.277Z,19.83
2022-08-31T14:34:16.392Z,19.83
2022-08-31T14:35:16.496Z,19.84
2022-08-31T14:36:16.560Z,19.83